sensor_id;sensor_type;location;lat;lon;timestamp;P1;durP1;ratioP1;P2;durP2;ratioP2
72676;SDS011;60755;51.374;10.662;2023-03-14T00:01:07;1.10;;;1.10;;
72676;SDS011;60755;51.374;10.662;2023-03-14T00:03:36;1.20;;;1.10;;
72676;SDS011;60755;51.374;10.662;2023-03-14T00:06:04;3.13;;;1.30;;
72676;SDS011;60755;51.374;10.662;2023-03-14T00:08:33;1.00;;;1.00;;
72676;SDS011;60755;51.374;10.662;2023-03-14T00:11:03;2.20;;;1.17;;
72676;SDS011;60755;51.374;10.662;2023-03-14T00:13:31;1.83;;;1.17;;
72676;SDS011;60755;51.374;10.662;2023-03-14T00:16:02;3.87;;;1.33;;
72676;SDS011;60755;51.374;10.662;2023-03-14T00:18:30;1.20;;;1.10;;
72676;SDS011;60755;51.374;10.662;2023-03-14T00:20:58;1.17;;;1.17;;
72676;SDS011;60755;51.374;10.662;2023-03-14T00:23:26;1.00;;;1.00;;
72676;SDS011;60755;51.374;10.662;2023-03-14T00:25:55;1.00;;;1.00;;
72676;SDS011;60755;51.374;10.662;2023-03-14T00:28:25;1.00;;;1.00;;
72676;SDS011;60755;51.374;10.662;2023-03-14T00:30:52;1.20;;;1.10;;
72676;SDS011;60755;51.374;10.662;2023-03-14T00:33:20;2.77;;;1.10;;
72676;SDS011;60755;51.374;10.662;2023-03-14T00:35:54;0.97;;;0.97;;
72676;SDS011;60755;51.374;10.662;2023-03-14T00:38:22;1.07;;;1.07;;
72676;SDS011;60755;51.374;10.662;2023-03-14T00:40:50;1.00;;;1.00;;
72676;SDS011;60755;51.374;10.662;2023-03-14T00:43:20;1.60;;;1.07;;
72676;SDS011;60755;51.374;10.662;2023-03-14T00:45:48;1.10;;;1.10;;
72676;SDS011;60755;51.374;10.662;2023-03-14T00:48:15;0.90;;;0.90;;
72676;SDS011;60755;51.374;10.662;2023-03-14T00:50:43;1.00;;;1.00;;
72676;SDS011;60755;51.374;10.662;2023-03-14T00:53:10;1.60;;;1.30;;
72676;SDS011;60755;51.374;10.662;2023-03-14T00:55:38;1.00;;;1.00;;
72676;SDS011;60755;51.374;10.662;2023-03-14T00:58:05;1.00;;;1.00;;
72676;SDS011;60755;51.374;10.662;2023-03-14T01:00:35;1.40;;;1.40;;
72676;SDS011;60755;51.374;10.662;2023-03-14T01:03:02;1.20;;;1.20;;
72676;SDS011;60755;51.374;10.662;2023-03-14T01:05:30;1.10;;;1.10;;
72676;SDS011;60755;51.374;10.662;2023-03-14T01:07:58;1.00;;;1.00;;
72676;SDS011;60755;51.374;10.662;2023-03-14T01:10:26;1.20;;;1.20;;
72676;SDS011;60755;51.374;10.662;2023-03-14T01:12:54;1.20;;;1.20;;
72676;SDS011;60755;51.374;10.662;2023-03-14T01:15:21;1.30;;;1.30;;
72676;SDS011;60755;51.374;10.662;2023-03-14T01:17:50;2.10;;;1.60;;
72676;SDS011;60755;51.374;10.662;2023-03-14T01:20:18;1.53;;;1.40;;
72676;SDS011;60755;51.374;10.662;2023-03-14T01:22:45;2.43;;;1.50;;
72676;SDS011;60755;51.374;10.662;2023-03-14T01:25:13;1.50;;;1.50;;
72676;SDS011;60755;51.374;10.662;2023-03-14T01:27:42;2.00;;;1.50;;
72676;SDS011;60755;51.374;10.662;2023-03-14T01:30:10;1.67;;;1.40;;
72676;SDS011;60755;51.374;10.662;2023-03-14T01:32:39;1.60;;;1.50;;
72676;SDS011;60755;51.374;10.662;2023-03-14T01:35:08;1.43;;;1.30;;
72676;SDS011;60755;51.374;10.662;2023-03-14T01:37:35;3.97;;;1.60;;
72676;SDS011;60755;51.374;10.662;2023-03-14T01:40:04;1.63;;;1.60;;
72676;SDS011;60755;51.374;10.662;2023-03-14T01:42:32;1.50;;;1.40;;
72676;SDS011;60755;51.374;10.662;2023-03-14T01:45:00;2.27;;;1.50;;
72676;SDS011;60755;51.374;10.662;2023-03-14T01:47:28;1.70;;;1.60;;
72676;SDS011;60755;51.374;10.662;2023-03-14T01:49:57;1.40;;;1.40;;
72676;SDS011;60755;51.374;10.662;2023-03-14T01:52:31;2.93;;;1.90;;
72676;SDS011;60755;51.374;10.662;2023-03-14T01:55:03;1.50;;;1.50;;
72676;SDS011;60755;51.374;10.662;2023-03-14T01:57:35;1.60;;;1.60;;
72676;SDS011;60755;51.374;10.662;2023-03-14T02:00:05;1.70;;;1.70;;
72676;SDS011;60755;51.374;10.662;2023-03-14T02:02:40;1.50;;;1.50;;
72676;SDS011;60755;51.374;10.662;2023-03-14T02:05:12;1.60;;;1.50;;
72676;SDS011;60755;51.374;10.662;2023-03-14T02:07:50;2.37;;;1.60;;
72676;SDS011;60755;51.374;10.662;2023-03-14T02:10:23;1.63;;;1.50;;
72676;SDS011;60755;51.374;10.662;2023-03-14T02:12:54;1.50;;;1.50;;
72676;SDS011;60755;51.374;10.662;2023-03-14T02:15:34;1.40;;;1.40;;
72676;SDS011;60755;51.374;10.662;2023-03-14T02:18:07;2.10;;;2.00;;
72676;SDS011;60755;51.374;10.662;2023-03-14T02:20:45;2.27;;;2.13;;
72676;SDS011;60755;51.374;10.662;2023-03-14T02:23:19;2.00;;;1.90;;
72676;SDS011;60755;51.374;10.662;2023-03-14T02:25:53;1.90;;;1.80;;
72676;SDS011;60755;51.374;10.662;2023-03-14T02:28:26;2.10;;;1.90;;
72676;SDS011;60755;51.374;10.662;2023-03-14T02:30:57;1.80;;;1.70;;
72676;SDS011;60755;51.374;10.662;2023-03-14T02:33:25;2.47;;;1.70;;
72676;SDS011;60755;51.374;10.662;2023-03-14T02:35:53;4.00;;;1.90;;
72676;SDS011;60755;51.374;10.662;2023-03-14T02:38:24;2.97;;;2.07;;
72676;SDS011;60755;51.374;10.662;2023-03-14T02:40:59;2.20;;;1.80;;
72676;SDS011;60755;51.374;10.662;2023-03-14T02:43:30;2.40;;;2.20;;
72676;SDS011;60755;51.374;10.662;2023-03-14T02:46:00;4.00;;;2.10;;
72676;SDS011;60755;51.374;10.662;2023-03-14T02:48:31;2.77;;;1.97;;
72676;SDS011;60755;51.374;10.662;2023-03-14T02:51:02;2.67;;;2.10;;
72676;SDS011;60755;51.374;10.662;2023-03-14T02:53:31;2.00;;;1.90;;
72676;SDS011;60755;51.374;10.662;2023-03-14T02:56:05;3.97;;;2.17;;
72676;SDS011;60755;51.374;10.662;2023-03-14T02:58:36;2.23;;;2.00;;
72676;SDS011;60755;51.374;10.662;2023-03-14T03:01:16;2.00;;;1.90;;
72676;SDS011;60755;51.374;10.662;2023-03-14T03:03:43;3.30;;;2.20;;
72676;SDS011;60755;51.374;10.662;2023-03-14T03:06:11;2.60;;;1.93;;
72676;SDS011;60755;51.374;10.662;2023-03-14T03:08:38;2.93;;;2.27;;
72676;SDS011;60755;51.374;10.662;2023-03-14T03:11:06;2.87;;;2.70;;
72676;SDS011;60755;51.374;10.662;2023-03-14T03:13:35;3.67;;;2.10;;
72676;SDS011;60755;51.374;10.662;2023-03-14T03:16:05;2.10;;;1.90;;
72676;SDS011;60755;51.374;10.662;2023-03-14T03:18:34;3.70;;;2.40;;
72676;SDS011;60755;51.374;10.662;2023-03-14T03:21:01;5.83;;;2.30;;
72676;SDS011;60755;51.374;10.662;2023-03-14T03:23:29;2.57;;;2.00;;
72676;SDS011;60755;51.374;10.662;2023-03-14T03:25:57;2.30;;;2.10;;
72676;SDS011;60755;51.374;10.662;2023-03-14T03:28:24;2.73;;;2.17;;
72676;SDS011;60755;51.374;10.662;2023-03-14T03:30:54;3.40;;;1.77;;
72676;SDS011;60755;51.374;10.662;2023-03-14T03:33:21;3.43;;;2.00;;
72676;SDS011;60755;51.374;10.662;2023-03-14T03:35:50;4.20;;;2.23;;
72676;SDS011;60755;51.374;10.662;2023-03-14T03:38:29;2.57;;;2.00;;
72676;SDS011;60755;51.374;10.662;2023-03-14T03:41:01;3.00;;;2.03;;
72676;SDS011;60755;51.374;10.662;2023-03-14T03:43:29;2.33;;;1.90;;
72676;SDS011;60755;51.374;10.662;2023-03-14T03:45:59;4.60;;;2.10;;
72676;SDS011;60755;51.374;10.662;2023-03-14T03:48:30;4.00;;;1.90;;
72676;SDS011;60755;51.374;10.662;2023-03-14T03:50:57;3.43;;;1.80;;
72676;SDS011;60755;51.374;10.662;2023-03-14T03:53:25;5.07;;;1.93;;
72676;SDS011;60755;51.374;10.662;2023-03-14T03:55:52;3.47;;;1.80;;
72676;SDS011;60755;51.374;10.662;2023-03-14T03:58:20;5.37;;;2.10;;
72676;SDS011;60755;51.374;10.662;2023-03-14T04:00:47;2.10;;;1.83;;
72676;SDS011;60755;51.374;10.662;2023-03-14T04:03:16;2.23;;;2.03;;
72676;SDS011;60755;51.374;10.662;2023-03-14T04:05:43;4.47;;;2.10;;
72676;SDS011;60755;51.374;10.662;2023-03-14T04:08:11;3.60;;;2.07;;
72676;SDS011;60755;51.374;10.662;2023-03-14T04:10:38;3.63;;;1.90;;
72676;SDS011;60755;51.374;10.662;2023-03-14T04:13:11;5.37;;;2.00;;
72676;SDS011;60755;51.374;10.662;2023-03-14T04:15:40;3.80;;;2.33;;
72676;SDS011;60755;51.374;10.662;2023-03-14T04:18:13;2.10;;;1.80;;
72676;SDS011;60755;51.374;10.662;2023-03-14T04:20:43;3.10;;;2.00;;
72676;SDS011;60755;51.374;10.662;2023-03-14T04:23:11;2.50;;;2.10;;
72676;SDS011;60755;51.374;10.662;2023-03-14T04:25:39;2.53;;;1.80;;
72676;SDS011;60755;51.374;10.662;2023-03-14T04:28:06;4.43;;;1.60;;
72676;SDS011;60755;51.374;10.662;2023-03-14T04:30:33;3.83;;;2.00;;
72676;SDS011;60755;51.374;10.662;2023-03-14T04:33:14;3.63;;;1.63;;
72676;SDS011;60755;51.374;10.662;2023-03-14T04:35:48;2.23;;;1.70;;
72676;SDS011;60755;51.374;10.662;2023-03-14T04:38:19;6.00;;;1.90;;
72676;SDS011;60755;51.374;10.662;2023-03-14T04:40:48;2.67;;;1.77;;
72676;SDS011;60755;51.374;10.662;2023-03-14T04:43:17;2.93;;;2.07;;
72676;SDS011;60755;51.374;10.662;2023-03-14T04:45:57;3.43;;;1.80;;
72676;SDS011;60755;51.374;10.662;2023-03-14T04:48:25;3.17;;;1.77;;
72676;SDS011;60755;51.374;10.662;2023-03-14T04:50:55;2.73;;;1.77;;
72676;SDS011;60755;51.374;10.662;2023-03-14T04:53:23;5.73;;;1.60;;
72676;SDS011;60755;51.374;10.662;2023-03-14T04:55:54;2.10;;;1.43;;
72676;SDS011;60755;51.374;10.662;2023-03-14T04:58:24;2.67;;;1.87;;
72676;SDS011;60755;51.374;10.662;2023-03-14T05:00:53;4.23;;;1.50;;
72676;SDS011;60755;51.374;10.662;2023-03-14T05:03:39;4.23;;;1.53;;
72676;SDS011;60755;51.374;10.662;2023-03-14T05:06:23;2.30;;;1.70;;
72676;SDS011;60755;51.374;10.662;2023-03-14T05:09:05;3.30;;;1.70;;
72676;SDS011;60755;51.374;10.662;2023-03-14T05:11:35;7.83;;;1.40;;
72676;SDS011;60755;51.374;10.662;2023-03-14T05:14:15;1.50;;;1.40;;
72676;SDS011;60755;51.374;10.662;2023-03-14T05:17:00;2.27;;;1.60;;
72676;SDS011;60755;51.374;10.662;2023-03-14T05:19:40;3.00;;;1.40;;
72676;SDS011;60755;51.374;10.662;2023-03-14T05:22:24;3.00;;;1.53;;
72676;SDS011;60755;51.374;10.662;2023-03-14T05:25:17;2.67;;;1.70;;
72676;SDS011;60755;51.374;10.662;2023-03-14T05:28:07;1.40;;;1.30;;
72676;SDS011;60755;51.374;10.662;2023-03-14T05:30:55;3.13;;;1.33;;
72676;SDS011;60755;51.374;10.662;2023-03-14T05:33:52;1.30;;;1.20;;
72676;SDS011;60755;51.374;10.662;2023-03-14T05:36:28;3.37;;;1.30;;
72676;SDS011;60755;51.374;10.662;2023-03-14T05:39:12;2.67;;;1.63;;
72676;SDS011;60755;51.374;10.662;2023-03-14T05:42:00;2.93;;;1.40;;
72676;SDS011;60755;51.374;10.662;2023-03-14T05:44:59;3.00;;;1.30;;
72676;SDS011;60755;51.374;10.662;2023-03-14T05:47:42;1.47;;;1.30;;
72676;SDS011;60755;51.374;10.662;2023-03-14T05:50:20;3.93;;;1.60;;
72676;SDS011;60755;51.374;10.662;2023-03-14T05:52:59;2.23;;;1.40;;
72676;SDS011;60755;51.374;10.662;2023-03-14T05:55:42;1.47;;;1.40;;
72676;SDS011;60755;51.374;10.662;2023-03-14T05:58:17;2.20;;;1.50;;
72676;SDS011;60755;51.374;10.662;2023-03-14T06:01:04;2.07;;;1.20;;
72676;SDS011;60755;51.374;10.662;2023-03-14T06:03:58;3.40;;;1.33;;
72676;SDS011;60755;51.374;10.662;2023-03-14T06:06:26;1.77;;;1.40;;
72676;SDS011;60755;51.374;10.662;2023-03-14T06:08:54;3.30;;;1.47;;
72676;SDS011;60755;51.374;10.662;2023-03-14T06:11:23;1.70;;;1.43;;
72676;SDS011;60755;51.374;10.662;2023-03-14T06:13:51;2.57;;;1.50;;
72676;SDS011;60755;51.374;10.662;2023-03-14T06:16:18;3.93;;;1.60;;
72676;SDS011;60755;51.374;10.662;2023-03-14T06:18:45;3.13;;;1.63;;
72676;SDS011;60755;51.374;10.662;2023-03-14T06:21:15;3.90;;;1.70;;
72676;SDS011;60755;51.374;10.662;2023-03-14T06:23:42;3.03;;;1.77;;
72676;SDS011;60755;51.374;10.662;2023-03-14T06:26:10;3.40;;;1.50;;
72676;SDS011;60755;51.374;10.662;2023-03-14T06:28:39;2.80;;;1.30;;
72676;SDS011;60755;51.374;10.662;2023-03-14T06:31:07;2.33;;;1.60;;
72676;SDS011;60755;51.374;10.662;2023-03-14T06:33:43;2.90;;;1.53;;
72676;SDS011;60755;51.374;10.662;2023-03-14T06:36:10;2.77;;;1.40;;
72676;SDS011;60755;51.374;10.662;2023-03-14T06:38:41;1.80;;;1.60;;
72676;SDS011;60755;51.374;10.662;2023-03-14T06:41:08;1.83;;;1.40;;
72676;SDS011;60755;51.374;10.662;2023-03-14T06:43:42;2.30;;;1.90;;
72676;SDS011;60755;51.374;10.662;2023-03-14T06:46:09;3.20;;;1.50;;
72676;SDS011;60755;51.374;10.662;2023-03-14T06:48:39;3.47;;;1.67;;
72676;SDS011;60755;51.374;10.662;2023-03-14T06:51:07;2.90;;;1.70;;
72676;SDS011;60755;51.374;10.662;2023-03-14T06:53:34;3.00;;;2.30;;
72676;SDS011;60755;51.374;10.662;2023-03-14T06:56:02;3.70;;;1.93;;
72676;SDS011;60755;51.374;10.662;2023-03-14T06:58:31;2.97;;;2.10;;
72676;SDS011;60755;51.374;10.662;2023-03-14T07:01:01;1.67;;;1.60;;
72676;SDS011;60755;51.374;10.662;2023-03-14T07:03:35;3.00;;;2.20;;
72676;SDS011;60755;51.374;10.662;2023-03-14T07:06:05;3.40;;;1.90;;
72676;SDS011;60755;51.374;10.662;2023-03-14T07:08:32;2.57;;;2.00;;
72676;SDS011;60755;51.374;10.662;2023-03-14T07:11:01;1.80;;;1.70;;
72676;SDS011;60755;51.374;10.662;2023-03-14T07:13:28;2.60;;;1.70;;
72676;SDS011;60755;51.374;10.662;2023-03-14T07:16:08;1.93;;;1.47;;
72676;SDS011;60755;51.374;10.662;2023-03-14T07:18:36;2.00;;;1.83;;
72676;SDS011;60755;51.374;10.662;2023-03-14T07:21:05;1.47;;;1.43;;
72676;SDS011;60755;51.374;10.662;2023-03-14T07:23:33;1.80;;;1.70;;
72676;SDS011;60755;51.374;10.662;2023-03-14T07:26:01;1.33;;;1.33;;
72676;SDS011;60755;51.374;10.662;2023-03-14T07:28:30;1.87;;;1.20;;
72676;SDS011;60755;51.374;10.662;2023-03-14T07:31:03;3.13;;;2.37;;
72676;SDS011;60755;51.374;10.662;2023-03-14T07:33:33;1.50;;;1.40;;
72676;SDS011;60755;51.374;10.662;2023-03-14T07:36:01;1.83;;;1.40;;
72676;SDS011;60755;51.374;10.662;2023-03-14T07:38:29;3.20;;;1.90;;
72676;SDS011;60755;51.374;10.662;2023-03-14T07:41:09;2.30;;;1.67;;
72676;SDS011;60755;51.374;10.662;2023-03-14T07:43:43;2.00;;;1.40;;
72676;SDS011;60755;51.374;10.662;2023-03-14T07:46:10;1.57;;;1.47;;
72676;SDS011;60755;51.374;10.662;2023-03-14T07:48:39;2.57;;;1.50;;
72676;SDS011;60755;51.374;10.662;2023-03-14T07:51:06;1.60;;;1.40;;
72676;SDS011;60755;51.374;10.662;2023-03-14T07:53:33;2.93;;;1.37;;
72676;SDS011;60755;51.374;10.662;2023-03-14T07:56:00;2.40;;;1.40;;
72676;SDS011;60755;51.374;10.662;2023-03-14T07:58:28;1.27;;;1.27;;
72676;SDS011;60755;51.374;10.662;2023-03-14T08:00:55;2.60;;;1.90;;
72676;SDS011;60755;51.374;10.662;2023-03-14T08:03:25;1.57;;;1.40;;
72676;SDS011;60755;51.374;10.662;2023-03-14T08:05:53;1.20;;;1.20;;
72676;SDS011;60755;51.374;10.662;2023-03-14T08:08:21;1.23;;;1.10;;
72676;SDS011;60755;51.374;10.662;2023-03-14T08:10:48;1.30;;;1.30;;
72676;SDS011;60755;51.374;10.662;2023-03-14T08:13:15;2.10;;;1.40;;
72676;SDS011;60755;51.374;10.662;2023-03-14T08:15:48;1.10;;;1.10;;
72676;SDS011;60755;51.374;10.662;2023-03-14T08:18:16;1.10;;;1.10;;
72676;SDS011;60755;51.374;10.662;2023-03-14T08:20:44;1.00;;;1.00;;
72676;SDS011;60755;51.374;10.662;2023-03-14T08:23:12;1.37;;;1.37;;
72676;SDS011;60755;51.374;10.662;2023-03-14T08:25:39;1.43;;;1.37;;
72676;SDS011;60755;51.374;10.662;2023-03-14T08:28:07;2.60;;;1.47;;
72676;SDS011;60755;51.374;10.662;2023-03-14T08:30:34;1.47;;;1.10;;
72676;SDS011;60755;51.374;10.662;2023-03-14T08:33:01;1.00;;;1.00;;
72676;SDS011;60755;51.374;10.662;2023-03-14T08:35:29;1.80;;;1.00;;
72676;SDS011;60755;51.374;10.662;2023-03-14T08:37:57;1.00;;;1.00;;
72676;SDS011;60755;51.374;10.662;2023-03-14T08:40:25;0.83;;;0.83;;
72676;SDS011;60755;51.374;10.662;2023-03-14T08:42:52;1.20;;;1.10;;
72676;SDS011;60755;51.374;10.662;2023-03-14T08:45:20;1.30;;;1.20;;
72676;SDS011;60755;51.374;10.662;2023-03-14T08:47:47;2.20;;;1.60;;
72676;SDS011;60755;51.374;10.662;2023-03-14T08:50:15;1.73;;;1.63;;
72676;SDS011;60755;51.374;10.662;2023-03-14T08:52:43;1.50;;;1.40;;
72676;SDS011;60755;51.374;10.662;2023-03-14T08:55:10;1.17;;;0.90;;
72676;SDS011;60755;51.374;10.662;2023-03-14T08:57:39;0.90;;;0.90;;
72676;SDS011;60755;51.374;10.662;2023-03-14T09:00:07;1.13;;;0.80;;
72676;SDS011;60755;51.374;10.662;2023-03-14T09:02:38;0.80;;;0.80;;
72676;SDS011;60755;51.374;10.662;2023-03-14T09:05:06;0.93;;;0.77;;
72676;SDS011;60755;51.374;10.662;2023-03-14T09:07:34;1.13;;;0.87;;
72676;SDS011;60755;51.374;10.662;2023-03-14T09:10:01;0.70;;;0.70;;
72676;SDS011;60755;51.374;10.662;2023-03-14T09:12:28;2.33;;;1.27;;
72676;SDS011;60755;51.374;10.662;2023-03-14T09:14:57;1.00;;;1.00;;
72676;SDS011;60755;51.374;10.662;2023-03-14T09:17:24;2.67;;;1.00;;
72676;SDS011;60755;51.374;10.662;2023-03-14T09:19:52;0.90;;;0.90;;
72676;SDS011;60755;51.374;10.662;2023-03-14T09:22:19;0.67;;;0.67;;
72676;SDS011;60755;51.374;10.662;2023-03-14T09:24:47;1.50;;;0.80;;
72676;SDS011;60755;51.374;10.662;2023-03-14T09:27:14;2.47;;;1.20;;
72676;SDS011;60755;51.374;10.662;2023-03-14T09:29:41;2.00;;;0.70;;
72676;SDS011;60755;51.374;10.662;2023-03-14T09:32:10;0.93;;;0.70;;
72676;SDS011;60755;51.374;10.662;2023-03-14T09:34:37;1.07;;;0.77;;
72676;SDS011;60755;51.374;10.662;2023-03-14T09:37:04;1.00;;;1.00;;
72676;SDS011;60755;51.374;10.662;2023-03-14T09:39:32;0.80;;;0.70;;
72676;SDS011;60755;51.374;10.662;2023-03-14T09:42:00;0.60;;;0.60;;
72676;SDS011;60755;51.374;10.662;2023-03-14T09:44:32;0.80;;;0.80;;
72676;SDS011;60755;51.374;10.662;2023-03-14T09:47:03;0.77;;;0.73;;
72676;SDS011;60755;51.374;10.662;2023-03-14T09:49:35;0.97;;;0.70;;
72676;SDS011;60755;51.374;10.662;2023-03-14T09:52:05;0.93;;;0.70;;
72676;SDS011;60755;51.374;10.662;2023-03-14T09:54:40;0.97;;;0.80;;
72676;SDS011;60755;51.374;10.662;2023-03-14T09:57:11;0.83;;;0.83;;
72676;SDS011;60755;51.374;10.662;2023-03-14T09:59:41;0.80;;;0.80;;
72676;SDS011;60755;51.374;10.662;2023-03-14T10:02:13;0.97;;;0.80;;
72676;SDS011;60755;51.374;10.662;2023-03-14T10:04:46;0.60;;;0.60;;
72676;SDS011;60755;51.374;10.662;2023-03-14T10:07:16;0.73;;;0.73;;
72676;SDS011;60755;51.374;10.662;2023-03-14T10:09:47;0.80;;;0.80;;
72676;SDS011;60755;51.374;10.662;2023-03-14T10:12:15;0.80;;;0.80;;
72676;SDS011;60755;51.374;10.662;2023-03-14T10:14:47;1.90;;;0.90;;
72676;SDS011;60755;51.374;10.662;2023-03-14T10:17:16;0.70;;;0.70;;
72676;SDS011;60755;51.374;10.662;2023-03-14T10:19:54;0.77;;;0.77;;
72676;SDS011;60755;51.374;10.662;2023-03-14T10:22:24;1.80;;;1.10;;
72676;SDS011;60755;51.374;10.662;2023-03-14T10:24:53;0.80;;;0.80;;
72676;SDS011;60755;51.374;10.662;2023-03-14T10:27:27;0.70;;;0.70;;
72676;SDS011;60755;51.374;10.662;2023-03-14T10:29:57;0.90;;;0.90;;
72676;SDS011;60755;51.374;10.662;2023-03-14T10:32:31;1.00;;;0.87;;
72676;SDS011;60755;51.374;10.662;2023-03-14T10:35:06;0.80;;;0.80;;
72676;SDS011;60755;51.374;10.662;2023-03-14T10:37:47;1.30;;;0.73;;
72676;SDS011;60755;51.374;10.662;2023-03-14T10:40:17;0.70;;;0.70;;
72676;SDS011;60755;51.374;10.662;2023-03-14T10:42:47;0.90;;;0.90;;
72676;SDS011;60755;51.374;10.662;2023-03-14T10:45:31;0.80;;;0.80;;
72676;SDS011;60755;51.374;10.662;2023-03-14T10:48:06;0.80;;;0.80;;
72676;SDS011;60755;51.374;10.662;2023-03-14T10:50:49;0.80;;;0.80;;
72676;SDS011;60755;51.374;10.662;2023-03-14T10:53:21;0.70;;;0.70;;
72676;SDS011;60755;51.374;10.662;2023-03-14T10:55:49;0.80;;;0.80;;
72676;SDS011;60755;51.374;10.662;2023-03-14T10:58:20;0.77;;;0.77;;
72676;SDS011;60755;51.374;10.662;2023-03-14T11:00:51;0.80;;;0.80;;
72676;SDS011;60755;51.374;10.662;2023-03-14T11:03:24;0.80;;;0.80;;
72676;SDS011;60755;51.374;10.662;2023-03-14T11:05:57;0.80;;;0.80;;
72676;SDS011;60755;51.374;10.662;2023-03-14T11:08:31;0.67;;;0.67;;
72676;SDS011;60755;51.374;10.662;2023-03-14T11:11:07;0.80;;;0.80;;
72676;SDS011;60755;51.374;10.662;2023-03-14T11:13:43;0.70;;;0.70;;
72676;SDS011;60755;51.374;10.662;2023-03-14T11:16:21;0.93;;;0.80;;
72676;SDS011;60755;51.374;10.662;2023-03-14T11:18:57;0.70;;;0.70;;
72676;SDS011;60755;51.374;10.662;2023-03-14T11:21:37;0.93;;;0.70;;
72676;SDS011;60755;51.374;10.662;2023-03-14T11:24:18;0.73;;;0.73;;
72676;SDS011;60755;51.374;10.662;2023-03-14T11:26:55;0.80;;;0.80;;
72676;SDS011;60755;51.374;10.662;2023-03-14T11:29:31;0.73;;;0.70;;
72676;SDS011;60755;51.374;10.662;2023-03-14T11:32:10;1.53;;;0.60;;
72676;SDS011;60755;51.374;10.662;2023-03-14T11:34:40;0.63;;;0.63;;
72676;SDS011;60755;51.374;10.662;2023-03-14T11:37:14;0.77;;;0.77;;
72676;SDS011;60755;51.374;10.662;2023-03-14T11:39:44;0.80;;;0.77;;
72676;SDS011;60755;51.374;10.662;2023-03-14T11:42:21;0.77;;;0.70;;
72676;SDS011;60755;51.374;10.662;2023-03-14T11:44:50;0.70;;;0.70;;
72676;SDS011;60755;51.374;10.662;2023-03-14T11:47:18;0.70;;;0.70;;
72676;SDS011;60755;51.374;10.662;2023-03-14T11:49:51;0.60;;;0.60;;
72676;SDS011;60755;51.374;10.662;2023-03-14T11:52:25;0.70;;;0.70;;
72676;SDS011;60755;51.374;10.662;2023-03-14T11:54:58;0.73;;;0.73;;
72676;SDS011;60755;51.374;10.662;2023-03-14T11:57:29;0.80;;;0.80;;
72676;SDS011;60755;51.374;10.662;2023-03-14T11:59:58;1.03;;;0.70;;
72676;SDS011;60755;51.374;10.662;2023-03-14T12:02:40;0.70;;;0.70;;
72676;SDS011;60755;51.374;10.662;2023-03-14T12:08:28;0.70;;;0.70;;
72676;SDS011;60755;51.374;10.662;2023-03-14T12:11:08;0.80;;;0.80;;
72676;SDS011;60755;51.374;10.662;2023-03-14T12:13:40;0.80;;;0.80;;
72676;SDS011;60755;51.374;10.662;2023-03-14T12:16:19;0.80;;;0.80;;
72676;SDS011;60755;51.374;10.662;2023-03-14T12:18:53;0.83;;;0.70;;
72676;SDS011;60755;51.374;10.662;2023-03-14T12:21:41;0.70;;;0.70;;
72676;SDS011;60755;51.374;10.662;2023-03-14T12:24:18;0.70;;;0.70;;
72676;SDS011;60755;51.374;10.662;2023-03-14T12:26:52;0.70;;;0.70;;
72676;SDS011;60755;51.374;10.662;2023-03-14T12:29:21;0.80;;;0.80;;
72676;SDS011;60755;51.374;10.662;2023-03-14T12:31:48;1.57;;;0.80;;
72676;SDS011;60755;51.374;10.662;2023-03-14T12:34:32;0.80;;;0.80;;
72676;SDS011;60755;51.374;10.662;2023-03-14T12:37:10;0.70;;;0.70;;
72676;SDS011;60755;51.374;10.662;2023-03-14T12:39:47;0.80;;;0.80;;
72676;SDS011;60755;51.374;10.662;2023-03-14T12:42:36;0.80;;;0.80;;
72676;SDS011;60755;51.374;10.662;2023-03-14T12:45:14;0.80;;;0.80;;
72676;SDS011;60755;51.374;10.662;2023-03-14T12:47:50;0.70;;;0.70;;
72676;SDS011;60755;51.374;10.662;2023-03-14T12:50:31;0.80;;;0.80;;
72676;SDS011;60755;51.374;10.662;2023-03-14T12:56:04;0.90;;;0.90;;
72676;SDS011;60755;51.374;10.662;2023-03-14T12:58:38;0.97;;;0.97;;
72676;SDS011;60755;51.374;10.662;2023-03-14T13:01:14;1.00;;;1.00;;
72676;SDS011;60755;51.374;10.662;2023-03-14T13:03:45;1.10;;;1.10;;
72676;SDS011;60755;51.374;10.662;2023-03-14T13:06:23;1.00;;;1.00;;
72676;SDS011;60755;51.374;10.662;2023-03-14T13:09:35;1.27;;;1.27;;
72676;SDS011;60755;51.374;10.662;2023-03-14T13:12:22;1.20;;;1.10;;
72676;SDS011;60755;51.374;10.662;2023-03-14T13:14:56;1.17;;;1.17;;
72676;SDS011;60755;51.374;10.662;2023-03-14T13:17:26;1.33;;;1.33;;
72676;SDS011;60755;51.374;10.662;2023-03-14T13:19:57;2.00;;;1.90;;
72676;SDS011;60755;51.374;10.662;2023-03-14T13:22:31;2.57;;;1.90;;
72676;SDS011;60755;51.374;10.662;2023-03-14T13:25:03;1.80;;;1.70;;
72676;SDS011;60755;51.374;10.662;2023-03-14T13:27:33;1.77;;;1.60;;
72676;SDS011;60755;51.374;10.662;2023-03-14T13:30:05;0.87;;;0.80;;
72676;SDS011;60755;51.374;10.662;2023-03-14T13:32:41;0.93;;;0.80;;
72676;SDS011;60755;51.374;10.662;2023-03-14T13:35:14;0.67;;;0.67;;
72676;SDS011;60755;51.374;10.662;2023-03-14T13:37:43;1.43;;;0.70;;
72676;SDS011;60755;51.374;10.662;2023-03-14T13:40:18;0.87;;;0.70;;
72676;SDS011;60755;51.374;10.662;2023-03-14T13:42:48;0.97;;;0.87;;
72676;SDS011;60755;51.374;10.662;2023-03-14T13:45:16;0.70;;;0.70;;
72676;SDS011;60755;51.374;10.662;2023-03-14T13:47:43;0.70;;;0.70;;
72676;SDS011;60755;51.374;10.662;2023-03-14T13:50:15;0.90;;;0.90;;
72676;SDS011;60755;51.374;10.662;2023-03-14T13:52:44;2.10;;;1.60;;
72676;SDS011;60755;51.374;10.662;2023-03-14T13:55:14;2.77;;;2.53;;
72676;SDS011;60755;51.374;10.662;2023-03-14T13:57:43;1.90;;;1.80;;
72676;SDS011;60755;51.374;10.662;2023-03-14T14:00:20;1.60;;;1.50;;
72676;SDS011;60755;51.374;10.662;2023-03-14T14:02:52;1.30;;;1.30;;
72676;SDS011;60755;51.374;10.662;2023-03-14T14:05:21;1.10;;;1.10;;
72676;SDS011;60755;51.374;10.662;2023-03-14T14:07:49;2.40;;;2.30;;
72676;SDS011;60755;51.374;10.662;2023-03-14T14:10:17;2.00;;;1.90;;
72676;SDS011;60755;51.374;10.662;2023-03-14T14:12:46;1.90;;;1.80;;
72676;SDS011;60755;51.374;10.662;2023-03-14T14:15:19;1.60;;;1.60;;
72676;SDS011;60755;51.374;10.662;2023-03-14T14:17:49;1.40;;;1.40;;
72676;SDS011;60755;51.374;10.662;2023-03-14T14:20:21;3.40;;;2.37;;
72676;SDS011;60755;51.374;10.662;2023-03-14T14:22:57;1.83;;;1.83;;
72676;SDS011;60755;51.374;10.662;2023-03-14T14:25:26;2.33;;;2.23;;
72676;SDS011;60755;51.374;10.662;2023-03-14T14:27:54;1.80;;;1.70;;
72676;SDS011;60755;51.374;10.662;2023-03-14T14:30:28;1.00;;;1.00;;
72676;SDS011;60755;51.374;10.662;2023-03-14T14:33:10;1.20;;;1.20;;
72676;SDS011;60755;51.374;10.662;2023-03-14T14:35:49;1.43;;;1.43;;
72676;SDS011;60755;51.374;10.662;2023-03-14T14:38:18;1.40;;;1.40;;
72676;SDS011;60755;51.374;10.662;2023-03-14T14:40:48;0.80;;;0.80;;
72676;SDS011;60755;51.374;10.662;2023-03-14T14:43:18;1.10;;;1.10;;
72676;SDS011;60755;51.374;10.662;2023-03-14T14:45:49;1.10;;;1.00;;
72676;SDS011;60755;51.374;10.662;2023-03-14T14:48:19;1.40;;;1.30;;
72676;SDS011;60755;51.374;10.662;2023-03-14T14:50:49;1.40;;;1.40;;
72676;SDS011;60755;51.374;10.662;2023-03-14T14:53:22;1.00;;;1.00;;
72676;SDS011;60755;51.374;10.662;2023-03-14T14:55:51;5.23;;;4.17;;
72676;SDS011;60755;51.374;10.662;2023-03-14T14:58:22;1.60;;;1.33;;
72676;SDS011;60755;51.374;10.662;2023-03-14T15:00:54;1.87;;;1.77;;
72676;SDS011;60755;51.374;10.662;2023-03-14T15:03:26;1.33;;;1.33;;
72676;SDS011;60755;51.374;10.662;2023-03-14T15:05:54;1.60;;;1.50;;